createdAt,value
2019-02-09T00:01:37.439Z,6.67
2019-02-09T00:04:08.107Z,6.10
2019-02-09T00:06:37.955Z,5.77
2019-02-09T00:09:09.648Z,5.77
2019-02-09T00:11:40.188Z,5.50
2019-02-09T00:14:10.436Z,6.43
2019-02-09T00:16:40.916Z,5.93
2019-02-09T00:19:11.371Z,6.30
2019-02-09T00:21:41.456Z,6.40
2019-02-09T00:24:11.590Z,6.40
2019-02-09T00:26:41.303Z,6.13
2019-02-09T00:29:11.576Z,6.17
2019-02-09T00:31:42.547Z,6.37
2019-02-09T00:34:12.931Z,5.30
2019-02-09T00:36:43.291Z,6.83
2019-02-09T00:39:17.735Z,6.47
2019-02-09T00:41:47.651Z,5.80
2019-02-09T00:44:17.325Z,6.07
2019-02-09T00:46:48.383Z,6.03
2019-02-09T00:49:21.443Z,6.00
2019-02-09T00:51:52.383Z,6.50
2019-02-09T00:54:22.340Z,6.27
2019-02-09T00:56:52.856Z,5.80
2019-02-09T00:59:23.401Z,6.40
2019-02-09T01:01:53.387Z,6.93
2019-02-09T01:04:23.363Z,6.20
2019-02-09T01:06:53.759Z,6.07
2019-02-09T01:09:23.535Z,6.80
2019-02-09T01:11:53.659Z,6.43
2019-02-09T01:14:26.838Z,5.40
2019-02-09T01:16:57.619Z,6.43
2019-02-09T01:19:28.163Z,6.50
2019-02-09T01:21:58.192Z,6.33
2019-02-09T01:24:28.239Z,6.33
2019-02-09T01:26:58.516Z,6.00
2019-02-09T01:29:29.047Z,5.70
2019-02-09T01:31:59.590Z,5.37
2019-02-09T01:34:29.727Z,5.17
2019-02-09T01:37:00.055Z,5.83
2019-02-09T01:39:30.508Z,5.70
2019-02-09T01:42:03.427Z,5.77
2019-02-09T01:44:35.515Z,5.30
2019-02-09T01:47:16.091Z,5.50
2019-02-09T01:49:46.383Z,5.53
2019-02-09T01:52:16.215Z,5.90
2019-02-09T01:54:46.711Z,5.47
2019-02-09T01:57:17.187Z,5.27
2019-02-09T01:59:49.458Z,5.47
2019-02-09T02:02:19.419Z,5.17
2019-02-09T02:04:51.043Z,5.40
2019-02-09T02:07:21.521Z,5.63
2019-02-09T02:09:51.203Z,5.60
2019-02-09T02:12:20.655Z,6.17
2019-02-09T02:14:51.203Z,4.97
2019-02-09T02:17:21.219Z,5.03
2019-02-09T02:19:51.388Z,5.37
2019-02-09T02:22:21.155Z,5.37
2019-02-09T02:24:51.088Z,5.60
2019-02-09T02:27:21.523Z,5.63
2019-02-09T02:29:52.032Z,4.70
2019-02-09T02:32:24.999Z,5.00
2019-02-09T02:34:55.584Z,5.43
2019-02-09T02:37:26.220Z,5.00
2019-02-09T02:39:57.056Z,5.00
2019-02-09T02:42:28.164Z,5.00
2019-02-09T02:44:58.281Z,5.03
2019-02-09T02:47:28.740Z,5.33
2019-02-09T02:49:59.444Z,4.63
2019-02-09T02:52:29.519Z,5.17
2019-02-09T02:55:00.470Z,4.90
2019-02-09T02:57:30.881Z,5.10
2019-02-09T03:00:00.681Z,5.00
2019-02-09T03:02:31.227Z,5.40
2019-02-09T03:05:01.106Z,4.90
2019-02-09T03:07:30.991Z,4.77
2019-02-09T03:10:00.735Z,4.37
2019-02-09T03:12:31.267Z,4.97
2019-02-09T03:15:01.811Z,4.80
2019-02-09T03:17:32.233Z,4.20
2019-02-09T03:20:02.071Z,4.17
2019-02-09T03:22:33.187Z,4.60
2019-02-09T03:25:05.083Z,4.20
2019-02-09T03:27:35.389Z,4.60
2019-02-09T03:30:06.696Z,4.30
2019-02-09T03:32:40.560Z,4.27
2019-02-09T03:35:11.099Z,4.20
2019-02-09T03:37:41.155Z,4.07
2019-02-09T03:40:12.411Z,4.40
2019-02-09T03:42:43.135Z,4.33
2019-02-09T03:45:15.363Z,4.80
2019-02-09T03:47:46.203Z,4.40
2019-02-09T03:50:16.869Z,4.83
2019-02-09T03:52:50.047Z,4.10
2019-02-09T03:55:20.699Z,4.90
2019-02-09T03:57:50.558Z,4.23
2019-02-09T04:00:22.500Z,4.67
2019-02-09T04:02:52.415Z,4.90
2019-02-09T04:05:22.399Z,4.43
2019-02-09T04:07:52.999Z,5.17
2019-02-09T04:10:24.345Z,5.40
2019-02-09T04:12:54.347Z,4.90
2019-02-09T04:15:25.505Z,5.50
2019-02-09T04:17:55.513Z,5.43
2019-02-09T04:20:26.131Z,5.10
2019-02-09T04:22:56.759Z,5.10
2019-02-09T04:25:27.844Z,5.37
2019-02-09T04:27:58.131Z,5.30
2019-02-09T04:30:30.269Z,5.67
2019-02-09T04:33:00.175Z,5.23
2019-02-09T04:35:30.497Z,5.60
2019-02-09T04:38:00.591Z,5.50
2019-02-09T04:40:31.404Z,5.43
2019-02-09T04:43:01.970Z,6.17
2019-02-09T04:45:32.169Z,5.37
2019-02-09T04:48:02.247Z,5.50
2019-02-09T04:50:33.088Z,5.00
2019-02-09T04:53:02.890Z,5.57
2019-02-09T04:55:33.983Z,5.33
2019-02-09T04:58:04.775Z,5.43
2019-02-09T05:00:34.912Z,5.50
2019-02-09T05:03:05.999Z,5.67
2019-02-09T05:05:36.411Z,5.30
2019-02-09T05:08:06.590Z,5.43
2019-02-09T05:10:36.539Z,5.13
2019-02-09T05:13:06.299Z,5.40
2019-02-09T05:15:36.839Z,5.53
2019-02-09T05:18:06.860Z,4.93
2019-02-09T05:20:37.683Z,5.23
2019-02-09T05:23:08.127Z,6.23
2019-02-09T05:25:38.096Z,5.67
2019-02-09T05:28:08.016Z,5.40
2019-02-09T05:30:39.487Z,5.40
2019-02-09T05:33:09.309Z,5.20
2019-02-09T05:35:39.595Z,5.00
2019-02-09T05:38:11.825Z,5.30
2019-02-09T05:40:44.555Z,5.90
2019-02-09T05:43:14.407Z,5.53
2019-02-09T05:45:44.852Z,5.87
2019-02-09T05:48:14.999Z,6.00
2019-02-09T05:50:45.059Z,6.43
2019-02-09T05:53:15.404Z,6.40
2019-02-09T05:55:45.194Z,6.60
2019-02-09T05:58:16.995Z,6.27
2019-02-09T06:00:47.607Z,6.90
2019-02-09T06:03:17.428Z,6.90
2019-02-09T06:05:47.230Z,7.23
2019-02-09T06:08:19.232Z,7.03
2019-02-09T06:10:49.301Z,6.63
2019-02-09T06:13:19.291Z,7.13
2019-02-09T06:15:49.923Z,7.17
2019-02-09T06:18:20.556Z,7.63
2019-02-09T06:20:50.280Z,7.57
2019-02-09T06:23:20.832Z,7.83
2019-02-09T06:25:50.878Z,7.43
2019-02-09T06:28:22.263Z,7.67
2019-02-09T06:30:52.241Z,8.60
2019-02-09T06:33:22.117Z,7.97
2019-02-09T06:35:52.759Z,7.60
2019-02-09T06:38:22.947Z,8.77
2019-02-09T06:41:03.100Z,8.40
2019-02-09T06:43:33.687Z,9.03
2019-02-09T06:46:03.663Z,8.40
2019-02-09T06:48:33.703Z,8.90
2019-02-09T06:51:05.179Z,8.23
2019-02-09T06:53:35.016Z,8.13
2019-02-09T06:56:06.210Z,7.70
2019-02-09T06:58:36.251Z,7.67
2019-02-09T07:01:07.255Z,8.27
2019-02-09T07:03:37.034Z,8.30
2019-02-09T07:06:06.611Z,8.60
2019-02-09T07:08:36.543Z,7.80
2019-02-09T07:11:15.810Z,8.37
2019-02-09T07:13:46.143Z,8.10
2019-02-09T07:16:16.347Z,7.87
2019-02-09T07:18:46.942Z,7.97
2019-02-09T07:21:17.114Z,8.70
2019-02-09T07:23:47.906Z,8.90
2019-02-09T07:26:17.947Z,7.87
2019-02-09T07:28:48.963Z,8.27
2019-02-09T07:31:19.133Z,8.40
2019-02-09T07:33:49.675Z,8.00
2019-02-09T07:36:20.683Z,8.57
2019-02-09T07:38:51.910Z,7.77
2019-02-09T07:41:22.836Z,8.97
2019-02-09T07:43:54.380Z,8.60
2019-02-09T07:46:25.385Z,8.23
2019-02-09T07:48:56.127Z,8.33
2019-02-09T07:51:26.171Z,7.67
2019-02-09T07:53:56.704Z,7.67
2019-02-09T07:56:26.356Z,8.37
2019-02-09T07:58:56.863Z,8.13
2019-02-09T08:01:28.138Z,8.13
2019-02-09T08:04:00.479Z,7.47
2019-02-09T08:06:31.015Z,7.97
2019-02-09T08:09:05.623Z,7.83
2019-02-09T08:11:36.288Z,7.53
2019-02-09T08:14:06.995Z,7.63
2019-02-09T08:16:37.599Z,8.10
2019-02-09T08:19:10.950Z,7.70
2019-02-09T08:21:44.845Z,7.90
2019-02-09T08:24:14.843Z,7.47
2019-02-09T08:26:45.839Z,8.47
2019-02-09T08:29:16.227Z,8.13
2019-02-09T08:31:49.263Z,7.37
2019-02-09T08:34:20.383Z,8.43
2019-02-09T08:36:50.384Z,8.40
2019-02-09T08:39:20.267Z,9.77
2019-02-09T08:41:50.227Z,11.37
2019-02-09T08:44:20.139Z,9.37
2019-02-09T08:46:51.127Z,9.03
2019-02-09T08:49:21.648Z,8.63
2019-02-09T08:51:52.141Z,7.70
2019-02-09T08:54:23.039Z,8.17
2019-02-09T08:56:53.107Z,7.73
2019-02-09T08:59:24.611Z,7.67
2019-02-09T09:01:56.191Z,7.40
2019-02-09T09:04:26.067Z,7.77
2019-02-09T09:06:59.091Z,7.50
2019-02-09T09:09:29.147Z,7.53
2019-02-09T09:12:00.443Z,7.90
2019-02-09T09:14:30.832Z,6.43
2019-02-09T09:17:00.847Z,7.10
2019-02-09T09:19:31.319Z,7.07
2019-02-09T09:22:01.951Z,6.60
2019-02-09T09:24:34.791Z,7.47
2019-02-09T09:27:04.766Z,7.43
2019-02-09T09:29:35.455Z,7.23
2019-02-09T09:32:06.115Z,8.43
2019-02-09T09:34:36.315Z,7.80
2019-02-09T09:37:07.621Z,6.97
2019-02-09T09:39:39.443Z,7.07
2019-02-09T09:42:09.859Z,7.23
2019-02-09T09:44:39.879Z,8.53
2019-02-09T09:47:10.811Z,8.40
2019-02-09T09:49:41.359Z,7.97
2019-02-09T09:52:14.091Z,8.00
2019-02-09T09:54:45.363Z,7.67
2019-02-09T09:57:16.351Z,8.03
2019-02-09T09:59:46.905Z,7.50
2019-02-09T10:02:16.697Z,7.50
2019-02-09T10:04:46.467Z,8.20
2019-02-09T10:07:17.847Z,7.87
2019-02-09T10:09:48.933Z,8.47
2019-02-09T10:12:19.744Z,8.33
2019-02-09T10:14:49.679Z,8.40
2019-02-09T10:17:19.503Z,7.83
2019-02-09T10:19:50.105Z,7.60
2019-02-09T10:22:20.219Z,7.63
2019-02-09T10:24:51.107Z,8.23
2019-02-09T10:27:20.963Z,7.30
2019-02-09T10:29:52.214Z,7.30
2019-02-09T10:32:24.971Z,7.80
2019-02-09T10:34:54.771Z,7.07
2019-02-09T10:37:24.848Z,7.20
2019-02-09T10:39:54.811Z,7.30
2019-02-09T10:42:25.459Z,8.03
2019-02-09T10:44:55.932Z,7.20
2019-02-09T10:47:25.866Z,6.37
2019-02-09T10:49:55.889Z,6.80
2019-02-09T10:52:26.975Z,7.03
2019-02-09T10:54:56.954Z,6.63
2019-02-09T10:57:28.189Z,6.47
2019-02-09T11:00:00.194Z,6.70
2019-02-09T11:02:30.319Z,6.20
2019-02-09T11:05:01.183Z,6.80
2019-02-09T11:07:31.664Z,7.00
2019-02-09T11:10:02.152Z,6.30
2019-02-09T11:12:32.563Z,6.40
2019-02-09T11:15:02.462Z,5.93
2019-02-09T11:17:32.884Z,5.90
2019-02-09T11:20:04.035Z,5.73
2019-02-09T11:22:35.007Z,5.97
2019-02-09T11:25:06.107Z,6.10
2019-02-09T11:27:37.263Z,6.10
2019-02-09T11:30:09.927Z,6.30
2019-02-09T11:32:39.718Z,6.20
2019-02-09T11:35:10.416Z,6.43
2019-02-09T11:37:40.319Z,6.07
2019-02-09T11:40:11.787Z,6.40
2019-02-09T11:42:41.507Z,6.37
2019-02-09T11:45:13.479Z,6.13
2019-02-09T11:47:43.459Z,6.63
2019-02-09T11:50:14.151Z,6.93
2019-02-09T11:52:47.893Z,6.47
2019-02-09T11:55:18.111Z,6.77
2019-02-09T11:57:49.129Z,7.07
2019-02-09T12:00:28.719Z,7.17
2019-02-09T12:03:04.049Z,6.77
2019-02-09T12:05:31.497Z,6.30
2019-02-09T12:08:01.465Z,6.67
2019-02-09T12:10:32.127Z,6.60
2019-02-09T12:13:01.807Z,7.20
2019-02-09T12:15:32.399Z,7.13
2019-02-09T12:18:04.276Z,7.60
2019-02-09T12:20:38.177Z,6.73
2019-02-09T12:23:07.934Z,6.50
2019-02-09T12:25:39.255Z,6.07
2019-02-09T12:28:10.207Z,6.37
2019-02-09T12:30:40.837Z,6.40
2019-02-09T12:33:11.396Z,6.43
2019-02-09T12:35:43.829Z,6.37
2019-02-09T12:38:14.662Z,6.87
2019-02-09T12:40:44.787Z,6.03
2019-02-09T12:43:14.803Z,5.93
2019-02-09T12:45:45.771Z,6.47
2019-02-09T12:48:15.814Z,5.93
2019-02-09T12:50:46.851Z,5.80
2019-02-09T12:53:16.875Z,6.13
2019-02-09T12:55:46.647Z,5.73
2019-02-09T12:58:17.124Z,6.27
2019-02-09T13:00:46.930Z,5.73
2019-02-09T13:03:18.759Z,5.37
2019-02-09T13:05:48.990Z,5.47
2019-02-09T13:08:20.689Z,5.73
2019-02-09T13:10:51.583Z,5.53
2019-02-09T13:13:21.490Z,5.40
2019-02-09T13:15:53.028Z,5.33
2019-02-09T13:18:27.166Z,5.23
2019-02-09T13:20:57.044Z,5.00
2019-02-09T13:23:27.111Z,5.00
2019-02-09T13:25:58.460Z,4.77
2019-02-09T13:28:29.451Z,4.83
2019-02-09T13:31:00.088Z,4.77
2019-02-09T13:33:30.268Z,3.90
2019-02-09T13:36:01.407Z,4.50
2019-02-09T13:38:31.319Z,5.03
2019-02-09T13:41:01.908Z,4.13
2019-02-09T13:43:33.557Z,3.80
2019-02-09T13:46:04.147Z,3.83
2019-02-09T13:48:34.684Z,3.60
2019-02-09T13:51:04.421Z,3.70
2019-02-09T13:53:34.528Z,3.80
2019-02-09T13:56:04.908Z,3.60
2019-02-09T13:58:34.991Z,4.00
2019-02-09T14:01:05.390Z,3.83
2019-02-09T14:03:35.324Z,4.00
2019-02-09T14:06:08.275Z,3.57
2019-02-09T14:08:38.651Z,3.80
2019-02-09T14:11:09.184Z,3.50
2019-02-09T14:13:39.763Z,3.50
2019-02-09T14:16:10.883Z,3.60
2019-02-09T14:18:40.981Z,2.93
2019-02-09T14:21:13.375Z,3.60
2019-02-09T14:23:43.999Z,3.73
2019-02-09T14:26:14.012Z,3.40
2019-02-09T14:28:43.895Z,3.07
2019-02-09T14:31:14.942Z,3.00
2019-02-09T14:33:54.848Z,3.37
2019-02-09T14:36:21.864Z,2.77
2019-02-09T14:38:51.887Z,3.50
2019-02-09T14:41:22.391Z,3.20
2019-02-09T14:43:53.307Z,3.20
2019-02-09T14:46:24.055Z,3.40
2019-02-09T14:48:54.591Z,3.57
2019-02-09T14:51:25.607Z,3.50
2019-02-09T14:53:55.699Z,3.80
2019-02-09T14:56:29.252Z,3.63
2019-02-09T14:58:59.959Z,4.03
2019-02-09T15:01:29.960Z,4.33
2019-02-09T15:04:02.753Z,3.97
2019-02-09T15:06:31.963Z,4.77
2019-02-09T15:09:03.217Z,4.30
2019-02-09T15:11:34.752Z,4.13
2019-02-09T15:14:06.099Z,4.80
2019-02-09T15:16:47.059Z,4.47
2019-02-09T15:19:16.946Z,4.40
2019-02-09T15:21:49.131Z,4.50
2019-02-09T15:24:18.891Z,4.33
2019-02-09T15:26:49.410Z,4.87
2019-02-09T15:29:20.311Z,4.97
2019-02-09T15:31:51.278Z,5.53
2019-02-09T15:34:26.227Z,5.67
2019-02-09T15:36:56.805Z,5.63
2019-02-09T15:39:27.223Z,5.13
2019-02-09T15:41:56.563Z,5.40
2019-02-09T15:44:26.618Z,4.67
2019-02-09T15:46:57.205Z,5.30
2019-02-09T15:49:27.287Z,4.83
2019-02-09T15:51:57.184Z,5.57
2019-02-09T15:54:27.087Z,5.13
2019-02-09T15:56:56.687Z,5.50
2019-02-09T15:59:26.536Z,5.30
2019-02-09T16:01:57.652Z,4.70
2019-02-09T16:04:27.895Z,5.40
2019-02-09T16:06:59.093Z,4.77
2019-02-09T16:09:28.875Z,4.60
2019-02-09T16:11:59.929Z,4.40
2019-02-09T16:14:29.527Z,4.60
2019-02-09T16:16:59.953Z,4.90
2019-02-09T16:19:31.136Z,5.10
2019-02-09T16:22:03.269Z,4.97
2019-02-09T16:24:34.741Z,4.73
2019-02-09T16:27:05.127Z,4.50
2019-02-09T16:29:35.712Z,4.80
2019-02-09T16:32:06.921Z,4.50
2019-02-09T16:34:39.504Z,4.37
2019-02-09T16:37:10.454Z,4.50
2019-02-09T16:39:39.844Z,4.37
2019-02-09T16:42:10.539Z,3.90
2019-02-09T16:44:40.499Z,4.77
2019-02-09T16:47:10.771Z,4.50
2019-02-09T16:49:43.519Z,6.27
2019-02-09T16:52:13.024Z,6.40
2019-02-09T16:54:44.016Z,13.10
2019-02-09T16:57:14.107Z,5.00
2019-02-09T16:59:43.723Z,11.80
2019-02-09T17:02:13.821Z,5.37
2019-02-09T17:04:44.531Z,6.73
2019-02-09T17:07:14.972Z,4.90
2019-02-09T17:09:45.027Z,6.70
2019-02-09T17:12:15.039Z,7.03
2019-02-09T17:14:45.070Z,5.37
2019-02-09T17:17:14.743Z,3.90
2019-02-09T17:19:45.371Z,5.50
2019-02-09T17:22:15.947Z,6.53
2019-02-09T17:24:47.007Z,5.17
2019-02-09T17:27:17.407Z,9.40
2019-02-09T17:29:47.907Z,8.40
2019-02-09T17:32:18.171Z,5.47
2019-02-09T17:34:49.255Z,5.30
2019-02-09T17:37:19.067Z,5.23
2019-02-09T17:39:49.663Z,4.80
2019-02-09T17:42:20.147Z,4.03
2019-02-09T17:44:49.876Z,4.70
2019-02-09T17:47:19.900Z,5.47
2019-02-09T17:49:52.362Z,5.37
2019-02-09T17:52:23.375Z,4.10
2019-02-09T17:54:53.443Z,7.43
2019-02-09T17:57:23.513Z,5.03
2019-02-09T17:59:54.559Z,4.10
2019-02-09T18:02:26.008Z,5.47
2019-02-09T18:04:55.921Z,7.00
2019-02-09T18:07:26.972Z,6.07
2019-02-09T18:09:57.543Z,5.57
2019-02-09T18:12:27.409Z,5.23
2019-02-09T18:14:58.878Z,5.67
2019-02-09T18:17:29.535Z,4.70
2019-02-09T18:19:59.178Z,6.00
2019-02-09T18:22:29.075Z,4.10
2019-02-09T18:24:59.053Z,5.57
2019-02-09T18:27:29.132Z,5.73
2019-02-09T18:29:58.902Z,4.73
2019-02-09T18:32:32.266Z,6.70
2019-02-09T18:35:03.849Z,4.80
2019-02-09T18:37:33.874Z,5.03
2019-02-09T18:40:05.063Z,6.00
2019-02-09T18:42:35.599Z,4.83
2019-02-09T18:45:06.548Z,4.90
2019-02-09T18:47:36.991Z,5.20
2019-02-09T18:50:07.617Z,4.00
2019-02-09T18:52:37.681Z,4.60
2019-02-09T18:55:08.611Z,4.80
2019-02-09T18:57:39.168Z,7.07
2019-02-09T19:00:11.583Z,4.23
2019-02-09T19:02:44.963Z,3.50
2019-02-09T19:05:15.019Z,4.40
2019-02-09T19:07:44.983Z,4.03
2019-02-09T19:10:16.800Z,4.67
2019-02-09T19:12:47.922Z,5.13
2019-02-09T19:15:18.746Z,4.30
2019-02-09T19:17:48.800Z,4.40
2019-02-09T19:20:29.115Z,4.53
2019-02-09T19:22:59.563Z,4.73
2019-02-09T19:25:30.707Z,4.10
2019-02-09T19:28:01.343Z,4.53
2019-02-09T19:30:34.416Z,3.80
2019-02-09T19:33:05.851Z,5.00
2019-02-09T19:35:36.231Z,5.40
2019-02-09T19:38:06.907Z,4.90
2019-02-09T19:40:37.256Z,5.47
2019-02-09T19:43:07.051Z,5.60
2019-02-09T19:45:37.496Z,5.17
2019-02-09T19:48:08.672Z,5.20
2019-02-09T19:50:38.396Z,6.67
2019-02-09T19:53:08.467Z,5.27
2019-02-09T19:55:38.964Z,4.90
2019-02-09T19:58:09.474Z,5.00
2019-02-09T20:00:41.155Z,5.50
2019-02-09T20:03:14.684Z,5.77
2019-02-09T20:05:44.851Z,4.50
2019-02-09T20:08:15.691Z,4.53
2019-02-09T20:10:45.996Z,4.83
2019-02-09T20:13:15.920Z,4.33
2019-02-09T20:15:46.475Z,4.17
2019-02-09T20:18:17.854Z,4.87
2019-02-09T20:20:48.666Z,4.50
2019-02-09T20:23:19.199Z,5.30
2019-02-09T20:25:49.219Z,4.70
2019-02-09T20:28:18.590Z,4.10
2019-02-09T20:30:49.523Z,4.77
2019-02-09T20:33:19.507Z,4.57
2019-02-09T20:35:49.572Z,4.00
2019-02-09T20:38:20.159Z,4.27
2019-02-09T20:40:52.687Z,3.97
2019-02-09T20:43:23.343Z,3.60
2019-02-09T20:45:53.956Z,3.80
2019-02-09T20:48:23.973Z,4.63
2019-02-09T20:50:54.528Z,4.57
2019-02-09T20:53:24.887Z,3.87
2019-02-09T20:55:56.799Z,3.50
2019-02-09T20:58:27.959Z,4.67
2019-02-09T21:00:59.111Z,4.07
2019-02-09T21:03:29.724Z,4.23
2019-02-09T21:05:59.800Z,4.27
2019-02-09T21:08:31.360Z,3.87
2019-02-09T21:11:01.131Z,4.80
2019-02-09T21:13:32.205Z,3.60
2019-02-09T21:16:03.001Z,4.17
2019-02-09T21:18:33.575Z,4.10
2019-02-09T21:21:03.607Z,3.57
2019-02-09T21:23:34.020Z,3.50
2019-02-09T21:26:03.907Z,3.60
2019-02-09T21:28:34.050Z,3.33
2019-02-09T21:31:05.276Z,4.25
2019-02-09T21:33:35.774Z,3.47
2019-02-09T21:36:05.703Z,3.47
2019-02-09T21:38:35.568Z,4.10
2019-02-09T21:41:05.427Z,3.37
2019-02-09T21:43:36.042Z,3.63
2019-02-09T21:46:06.199Z,3.50
2019-02-09T21:48:35.872Z,3.53
2019-02-09T21:51:05.957Z,3.40
2019-02-09T21:53:36.075Z,2.70
2019-02-09T21:56:06.356Z,3.73
2019-02-09T21:58:36.899Z,3.20
2019-02-09T22:01:09.105Z,3.30
2019-02-09T22:03:39.799Z,3.23
2019-02-09T22:06:10.299Z,3.10
2019-02-09T22:08:40.223Z,3.33
2019-02-09T22:11:10.920Z,3.27
2019-02-09T22:13:40.738Z,3.10
2019-02-09T22:16:11.281Z,3.17
2019-02-09T22:18:41.633Z,3.13
2019-02-09T22:21:11.377Z,3.60
2019-02-09T22:23:42.660Z,3.37
2019-02-09T22:26:13.419Z,2.80
2019-02-09T22:28:43.859Z,3.50
2019-02-09T22:31:21.730Z,4.03
2019-02-09T22:33:46.583Z,3.03
2019-02-09T22:36:16.559Z,3.17
2019-02-09T22:38:46.817Z,2.67
2019-02-09T22:41:16.623Z,3.77
2019-02-09T22:43:48.155Z,3.23
2019-02-09T22:46:24.099Z,2.90
2019-02-09T22:48:54.192Z,4.93
2019-02-09T22:51:24.811Z,4.37
2019-02-09T22:53:54.675Z,2.90
2019-02-09T22:56:25.263Z,2.90
2019-02-09T22:58:55.873Z,2.30
2019-02-09T23:01:44.485Z,2.37
2019-02-09T23:04:36.354Z,1.87
2019-02-09T23:07:14.303Z,2.80
2019-02-09T23:09:44.927Z,2.37
2019-02-09T23:12:15.524Z,3.03
2019-02-09T23:14:46.468Z,2.43
2019-02-09T23:17:16.359Z,2.13
2019-02-09T23:19:46.160Z,4.47
2019-02-09T23:22:16.517Z,2.40
2019-02-09T23:24:49.794Z,4.07
2019-02-09T23:27:20.438Z,2.60
2019-02-09T23:29:51.021Z,2.53
2019-02-09T23:32:33.183Z,2.20
2019-02-09T23:35:03.069Z,2.17
2019-02-09T23:37:33.443Z,2.17
2019-02-09T23:40:03.960Z,2.53
2019-02-09T23:42:34.393Z,2.60
2019-02-09T23:45:05.369Z,2.20
2019-02-09T23:47:35.632Z,2.40
2019-02-09T23:50:05.550Z,2.23
2019-02-09T23:52:35.929Z,2.30
2019-02-09T23:55:06.361Z,3.03
2019-02-09T23:57:36.122Z,1.97
